Flight Track Log - Related Links

Times and Time Zones

All times are in EDT time to prevent confusion due to time zone crossing. See the EJM214 flight status page for this flight to view local times or setup timezone preferences in your user account.

Time Position Orientation Groundspeed Altitude Reporting Facility
EDT Latitude Longitude Course Direction KTS MPH feet Rate Location/Type
Thu 03:27:43 PM 39.3461 -102.1431 60° Northeast 308 354 10,100  Level Denver Center
Thu 03:28:46 PM 39.3992 -102.0333 58° Northeast 323 372 13,800 2,928 Climbing Denver Center
Thu 03:29:48 PM 39.4514 -101.9311 56° Northeast 356 410 16,200 2,661 Climbing Denver Center
Thu 03:30:50 PM 39.5161 -101.7978 58° Northeast 390 449 19,300 3,000 Climbing Denver Center
Thu 03:31:52 PM 39.5722 -101.6811 58° Northeast 399 459 22,400 2,806 Climbing Denver Center
Thu 03:32:00 PM 39.5368 -101.6709 60° Northeast  Level FlightAware Approximate
Thu 03:32:54 PM 39.6406 -101.5414 58° Northeast 412 474 25,100  Level Denver Center
Thu 03:33:56 PM 39.7006 -101.4172 58° Northeast 422 486 27,000 1,790 Climbing Denver Center
Thu 03:34:58 PM 39.7742 -101.2672 57° Northeast 441 507 28,800 1,548 Climbing Denver Center
Thu 03:36:00 PM 39.8392 -101.1331 58° Northeast 454 522 30,200 1,500 Climbing Denver Center
Thu 03:37:02 PM 39.9158 -100.9706 58° Northeast 470 541 31,900 1,548 Climbing Denver Center
Thu 03:38:04 PM 39.9828 -100.8322 58° Northeast 473 544 33,400 1,500 Climbing Denver Center
Thu 03:39:06 PM 40.0589 -100.6681 59° Northeast 474 545 35,000 1,548 Climbing Denver Center
Thu 03:40:08 PM 40.1250 -100.5281 58° Northeast 475 547 36,600 1,935 Climbing Denver Center
Thu 03:41:10 PM 40.1997 -100.3672 59° Northeast 465 535 39,000 2,081 Climbing Denver Center
Thu 03:42:12 PM 40.2603 -100.2369 59° Northeast 446 513 40,900 1,645 Climbing Denver Center
Thu 03:43:14 PM 40.3292 -100.0911 58° Northeast 427 491 42,400 968 Climbing Denver Center
Thu 03:44:16 PM 40.3878 -99.9642 59° Northeast 426 490 42,900 484 Climbing Denver Center
Thu 03:45:18 PM 40.4494 -99.8314 59° Northeast 438 504 43,400 484 Climbing Denver Center
Thu 03:46:20 PM 40.5125 -99.6922 59° Northeast 442 509 43,900 532 Climbing Denver Center
Thu 03:47:22 PM 40.5889 -99.5261 59° Northeast 444 511 44,500 612 Climbing Denver Center
Thu 03:47:58 PM 40.6278 -99.4428 58° Northeast 446 513 44,900 306 Climbing Minneapolis Center
Thu 03:49:00 PM 40.6917 -99.3006 59° Northeast 451 519 45,000 48 Climbing Minneapolis Center
Thu 03:50:02 PM 40.7575 -99.1564 59° Northeast 455 524 45,000  Level Minneapolis Center
Thu 03:51:04 PM 40.8208 -99.0114 60° Northeast 459 528 45,000  Level Minneapolis Center
Thu 03:52:06 PM 40.8850 -98.8653 60° Northeast 459 528 45,000  Level Minneapolis Center
Thu 03:53:08 PM 40.9481 -98.7178 60° Northeast 460 529 45,000  Level Minneapolis Center
Thu 03:54:11 PM 41.0283 -98.5433 59° Northeast 463 533 45,000  Level Minneapolis Center
Thu 03:55:13 PM 41.0889 -98.4064 60° Northeast 458 527 45,000  Level Minneapolis Center
Thu 03:56:15 PM 41.1522 -98.2631 60° Northeast 455 524 45,000  Level Minneapolis Center
Thu 03:57:17 PM 41.2153 -98.1186 60° Northeast 454 522 45,000  Level Minneapolis Center
Thu 03:58:19 PM 41.2911 -97.9464 60° Northeast 452 520 45,000  Level Minneapolis Center
Thu 03:59:23 PM 41.3581 -97.7911 60° Northeast 453 521 45,000  Level Minneapolis Center
Thu 04:00:25 PM 41.4214 -97.6450 60° Northeast 454 522 45,000  Level Minneapolis Center
Thu 04:01:27 PM 41.4833 -97.5003 60° Northeast 451 519 45,000  Level Minneapolis Center
Thu 04:02:30 PM 41.5458 -97.3544 60° Northeast 452 520 45,000  Level Minneapolis Center
Thu 04:03:32 PM 41.6075 -97.2083 61° Northeast 451 519 45,000  Level Minneapolis Center
Thu 04:04:34 PM 41.6697 -97.0619 60° Northeast 451 519 45,000  Level Minneapolis Center
Thu 04:05:36 PM 41.7311 -96.9158 61° Northeast 450 518 45,000  Level Minneapolis Center
Thu 04:06:38 PM 41.8047 -96.7392 61° Northeast 450 518 45,000  Level Minneapolis Center
Thu 04:07:40 PM 41.8656 -96.5908 61° Northeast 451 519 45,000  Level Minneapolis Center
Thu 04:08:42 PM 41.9269 -96.4417 61° Northeast 453 521 45,000  Level Minneapolis Center
Thu 04:09:44 PM 41.9875 -96.2933 61° Northeast 452 520 45,000  Level Minneapolis Center
Thu 04:10:46 PM 42.0503 -96.1425 61° Northeast 457 526 45,000  Level Minneapolis Center
Thu 04:11:49 PM 42.1100 -95.9925 62° Northeast 455 524 45,000  Level Minneapolis Center
Thu 04:12:51 PM 42.1708 -95.8408 62° Northeast 456 525 45,000  Level Minneapolis Center
Thu 04:13:53 PM 42.2433 -95.6592 62° Northeast 457 526 45,000  Level Minneapolis Center
Thu 04:14:55 PM 42.3044 -95.5067 62° Northeast 460 529 45,000  Level Minneapolis Center
Thu 04:15:57 PM 42.3642 -95.3544 62° Northeast 457 526 45,000  Level Minneapolis Center
Thu 04:16:59 PM 42.4247 -95.2006 62° Northeast 461 531 45,000  Level Minneapolis Center
Thu 04:18:13 PM 42.4853 -95.0483 62° Northeast 459 528 45,000  Level Minneapolis Center
Thu 04:19:16 PM 42.5569 -94.8639 62° Northeast 462 532 45,000  Level Minneapolis Center
Thu 04:20:18 PM 42.6292 -94.6778 62° Northeast 464 534 45,000 -387 Level Minneapolis Center
Thu 04:21:20 PM 42.6786 -94.5464 63° Northeast 461 531 44,200 -1,548 Descending Minneapolis Center
Thu 04:22:22 PM 42.7508 -94.3614 62° Northeast 465 535 41,800 -2,129 Descending Minneapolis Center
Thu 04:23:24 PM 42.8094 -94.2047 63° Northeast 468 539 39,800 -1,935 Descending Minneapolis Center
Thu 04:24:26 PM 42.8672 -94.0528 63° Northeast 458 527 37,800 -1,355 Descending Minneapolis Center
Thu 04:25:28 PM 42.9264 -93.8972 63° Northeast 464 534 37,000 -768 Descending Minneapolis Center
Thu 04:26:31 PM 42.9853 -93.7392 63° Northeast 468 539 36,200 -1,577 Descending Minneapolis Center
Thu 04:27:45 PM 43.0717 -93.5056 63° Northeast 495 570 33,400 -2,118 Descending Minneapolis Center
Thu 04:28:47 PM 43.1164 -93.3175 72° East 520 598 31,400 -1,935 Descending Minneapolis Center
Thu 04:29:49 PM 43.1617 -93.1319 71° East 520 598 29,400 -1,935 Descending Minneapolis Center
Thu 04:30:51 PM 43.2117 -92.9458 70° East 523 602 27,400 -2,064 Descending Minneapolis Center
Thu 04:31:54 PM 43.2717 -92.7728 64° Northeast 506 582 25,100 -2,064 Descending Minneapolis Center
Thu 04:32:56 PM 43.3483 -92.5878 60° Northeast 472 543 23,100 -2,081 Descending Minneapolis Center
Thu 04:33:58 PM 43.4086 -92.4389 61° Northeast 453 521 20,800 -2,226 Descending Minneapolis Center
Thu 04:35:00 PM 43.4669 -92.2939 61° Northeast 441 507 18,500 -2,274 Descending Minneapolis Center
Thu 04:36:02 PM 43.5247 -92.1503 61° Northeast 433 498 16,100 -2,274 Descending Minneapolis Center
Thu 04:37:04 PM 43.5800 -92.0131 61° Northeast 408 470 13,800 -2,468 Descending Minneapolis Center
Thu 04:38:06 PM 43.6406 -91.8583 62° Northeast 384 442 11,000 -1,935 Descending Minneapolis Center
Thu 04:39:08 PM 43.6664 -91.7586 70° East 352 405 9,800 -1,500 Descending Minneapolis Center
Thu 04:40:10 PM 43.6650 -91.6072 91° East 311 358 7,900 -1,935 Descending Minneapolis Center
Thu 04:41:12 PM 43.6958 -91.5000 68° East 284 327 5,800 -1,984 Descending Minneapolis Center
Thu 04:42:14 PM 43.7275 -91.4019 66° East 288 331 3,800 -1,296 Descending Minneapolis Center
Thu 04:43:17 PM 43.7794 -91.3144 51° Northeast 263 303 3,100 -624 Descending Minneapolis Center
Thu 04:44:19 PM 43.8133 -91.2567 51° Northeast 247 284 2,500 -581 Descending Minneapolis Center

Login

Don't have an account? Register now (free) for customized features, flight alerts, and more!